createdAt,value
2018-08-25T00:00:36.458Z,17.90
2018-08-25T00:03:04.054Z,17.80
2018-08-25T00:05:31.666Z,17.70
2018-08-25T00:07:59.317Z,17.70
2018-08-25T00:10:26.969Z,17.70
2018-08-25T00:12:54.574Z,17.70
2018-08-25T00:15:22.180Z,17.70
2018-08-25T00:17:53.454Z,17.70
2018-08-25T00:20:21.083Z,17.60
2018-08-25T00:22:48.742Z,17.50
2018-08-25T00:25:16.410Z,17.50
2018-08-25T00:27:44.035Z,17.60
2018-08-25T00:30:17.082Z,17.50
2018-08-25T00:32:44.713Z,17.50
2018-08-25T00:35:12.344Z,17.40
2018-08-25T00:37:40.059Z,17.40
2018-08-25T00:40:07.692Z,17.30
2018-08-25T00:42:35.392Z,17.30
2018-08-25T00:45:03.137Z,17.30
2018-08-25T00:47:30.893Z,17.40
2018-08-25T00:49:58.505Z,17.30
2018-08-25T00:52:26.129Z,17.30
2018-08-25T00:54:53.772Z,17.30
2018-08-25T00:57:21.405Z,17.20
2018-08-25T00:59:49.057Z,17.20
2018-08-25T01:02:16.701Z,17.20
2018-08-25T01:04:44.366Z,17.20
2018-08-25T01:07:11.906Z,17.20
2018-08-25T01:09:39.683Z,17.20
2018-08-25T01:12:07.435Z,17.20
2018-08-25T01:20:10.663Z,17.00
2018-08-25T01:22:38.306Z,17.10
2018-08-25T01:25:05.965Z,17.00
2018-08-25T01:27:33.560Z,17.00
2018-08-25T01:30:01.288Z,17.00
2018-08-25T01:32:28.977Z,17.00
2018-08-25T01:34:56.697Z,17.00
2018-08-25T01:37:24.343Z,17.00
2018-08-25T01:39:51.980Z,17.00
2018-08-25T01:42:19.636Z,16.90
2018-08-25T01:44:47.272Z,16.90
2018-08-25T01:47:14.894Z,16.90
2018-08-25T01:49:42.505Z,16.90
2018-08-25T01:52:10.137Z,16.90
2018-08-25T01:54:41.550Z,16.80
2018-08-25T01:57:09.212Z,16.90
2018-08-25T01:59:36.809Z,16.90
2018-08-25T02:02:04.451Z,16.80
2018-08-25T02:04:32.077Z,16.80
2018-08-25T02:06:59.660Z,16.70
2018-08-25T02:09:27.276Z,16.60
2018-08-25T02:11:54.951Z,16.50
2018-08-25T02:14:22.839Z,16.50
2018-08-25T02:16:50.549Z,16.50
2018-08-25T02:19:18.146Z,16.40
2018-08-25T02:21:45.764Z,16.50
2018-08-25T02:24:13.373Z,16.50
2018-08-25T02:26:41.010Z,16.50
2018-08-25T02:29:08.653Z,16.40
2018-08-25T02:31:36.261Z,16.40
2018-08-25T02:34:03.849Z,16.40
2018-08-25T02:36:31.448Z,16.30
2018-08-25T02:38:59.076Z,16.30
2018-08-25T02:41:26.696Z,16.30
2018-08-25T02:43:54.320Z,16.20
2018-08-25T02:46:22.013Z,16.20
2018-08-25T02:48:49.690Z,16.10
2018-08-25T02:51:17.339Z,16.10
2018-08-25T02:53:47.097Z,16.10
2018-08-25T02:56:14.670Z,16.10
2018-08-25T02:58:42.260Z,16.10
2018-08-25T03:01:09.937Z,16.10
2018-08-25T03:03:37.567Z,16.10
2018-08-25T03:06:05.265Z,16.10
2018-08-25T03:08:32.908Z,16.10
2018-08-25T03:11:00.567Z,16.10
2018-08-25T03:13:28.169Z,16.10
2018-08-25T03:15:55.763Z,16.10
2018-08-25T03:18:23.481Z,16.10
2018-08-25T03:20:51.133Z,16.00
2018-08-25T03:23:18.812Z,16.00
2018-08-25T03:25:46.445Z,15.90
2018-08-25T03:28:14.090Z,15.90
2018-08-25T03:30:41.757Z,15.80
2018-08-25T03:33:09.463Z,15.90
2018-08-25T03:35:37.102Z,15.90
2018-08-25T03:38:04.722Z,15.90
2018-08-25T03:40:32.374Z,15.90
2018-08-25T03:42:59.993Z,15.80
2018-08-25T03:45:27.574Z,15.90
2018-08-25T03:47:55.277Z,15.80
2018-08-25T03:50:22.984Z,15.80
2018-08-25T03:52:50.605Z,15.80
2018-08-25T03:55:18.281Z,15.80
2018-08-25T03:57:45.850Z,15.70
2018-08-25T04:00:13.484Z,15.60
2018-08-25T04:02:41.066Z,15.60
2018-08-25T04:05:08.683Z,15.50
2018-08-25T04:07:36.281Z,15.60
2018-08-25T04:10:03.914Z,15.50
2018-08-25T04:12:36.290Z,15.50
2018-08-25T04:15:03.941Z,15.50
2018-08-25T04:17:31.575Z,15.40
2018-08-25T04:19:59.202Z,15.40
2018-08-25T04:22:26.901Z,15.30
2018-08-25T04:25:00.217Z,15.30
2018-08-25T04:27:27.874Z,15.30
2018-08-25T04:29:55.533Z,15.30
2018-08-25T04:32:23.097Z,15.30
2018-08-25T04:34:50.802Z,15.30
2018-08-25T04:37:18.461Z,15.20
2018-08-25T04:39:46.116Z,15.20
2018-08-25T04:42:13.748Z,15.20
2018-08-25T04:44:41.390Z,15.30
2018-08-25T04:47:09.169Z,15.20
2018-08-25T04:49:36.762Z,15.30
2018-08-25T04:52:11.003Z,15.30
2018-08-25T04:54:38.673Z,15.30
2018-08-25T04:57:06.329Z,15.30
2018-08-25T04:59:33.909Z,15.40
2018-08-25T05:02:01.719Z,15.30
2018-08-25T05:04:29.235Z,15.30
2018-08-25T05:06:56.870Z,15.50
2018-08-25T05:09:24.493Z,15.50
2018-08-25T05:11:52.181Z,15.40
2018-08-25T05:14:19.802Z,15.40
2018-08-25T05:16:47.413Z,15.40
2018-08-25T05:19:15.108Z,15.40
2018-08-25T05:24:29.568Z,15.40
2018-08-25T05:26:57.218Z,15.40
2018-08-25T05:29:24.870Z,15.40
2018-08-25T05:31:52.505Z,15.40
2018-08-25T05:34:20.198Z,15.50
2018-08-25T05:36:47.876Z,15.50
2018-08-25T05:39:16.802Z,15.60
2018-08-25T05:41:44.466Z,15.60
2018-08-25T05:44:12.208Z,15.60
2018-08-25T05:46:39.837Z,15.60
2018-08-25T05:49:07.615Z,15.60
2018-08-25T05:51:35.291Z,15.50
2018-08-25T05:54:03.031Z,15.50
2018-08-25T05:56:30.842Z,15.50
2018-08-25T05:58:58.471Z,15.50
2018-08-25T06:01:26.315Z,15.50
2018-08-25T06:03:54.294Z,15.60
2018-08-25T06:06:22.202Z,15.60
2018-08-25T06:08:49.944Z,15.70
2018-08-25T06:11:17.684Z,15.70
2018-08-25T06:13:45.597Z,15.70
2018-08-25T06:16:13.354Z,15.70
2018-08-25T06:18:41.080Z,15.70
2018-08-25T06:21:08.910Z,15.70
2018-08-25T06:23:36.635Z,15.70
2018-08-25T06:26:04.377Z,15.70
2018-08-25T06:28:32.113Z,15.80
2018-08-25T06:31:00.072Z,15.80
2018-08-25T06:33:27.784Z,15.90
2018-08-25T06:35:55.532Z,16.00
2018-08-25T06:38:23.266Z,16.10
2018-08-25T06:40:52.266Z,16.20
2018-08-25T06:43:19.939Z,16.30
2018-08-25T06:45:51.872Z,16.30
2018-08-25T06:48:19.685Z,16.60
2018-08-25T06:50:47.513Z,16.80
2018-08-25T06:53:16.059Z,16.70
2018-08-25T06:55:48.564Z,16.60
2018-08-25T06:58:16.234Z,16.50
2018-08-25T07:00:43.933Z,16.60
2018-08-25T07:03:11.699Z,16.60
2018-08-25T07:05:39.465Z,16.70
2018-08-25T07:08:07.179Z,16.60
2018-08-25T07:10:34.962Z,16.60
2018-08-25T07:13:02.916Z,16.60
2018-08-25T07:15:30.528Z,16.60
2018-08-25T07:17:58.223Z,16.60
2018-08-25T07:20:26.152Z,16.60
2018-08-25T07:22:54.077Z,16.70
2018-08-25T07:25:21.826Z,16.80
2018-08-25T07:30:35.039Z,16.90
2018-08-25T07:33:02.808Z,17.00
2018-08-25T07:35:34.145Z,16.90
2018-08-25T07:38:01.899Z,17.00
2018-08-25T07:40:29.730Z,16.90
2018-08-25T07:42:57.450Z,16.80
2018-08-25T07:45:25.230Z,16.70
2018-08-25T07:47:52.982Z,16.70
2018-08-25T07:50:26.402Z,16.60
2018-08-25T07:52:54.148Z,16.50
2018-08-25T07:55:21.895Z,16.50
2018-08-25T07:57:49.631Z,16.40
2018-08-25T08:00:17.300Z,16.40
2018-08-25T08:02:44.998Z,16.30
2018-08-25T08:05:12.650Z,16.20
2018-08-25T08:07:40.293Z,16.10
2018-08-25T08:10:07.914Z,15.90
2018-08-25T08:12:45.408Z,15.80
2018-08-25T08:15:13.143Z,15.70
2018-08-25T08:17:45.039Z,15.60
2018-08-25T08:20:12.775Z,15.60
2018-08-25T08:22:40.395Z,15.40
2018-08-25T08:25:08.052Z,15.40
2018-08-25T08:27:36.292Z,15.30
2018-08-25T08:30:19.955Z,14.90
2018-08-25T08:32:47.631Z,14.70
2018-08-25T08:35:15.332Z,14.60
2018-08-25T08:37:42.971Z,14.60
2018-08-25T08:40:11.720Z,14.60
2018-08-25T08:42:39.417Z,14.60
2018-08-25T08:45:07.270Z,14.60
2018-08-25T08:47:41.674Z,14.60
2018-08-25T08:50:15.917Z,14.60
2018-08-25T08:52:49.894Z,14.70
2018-08-25T08:55:17.547Z,14.70
2018-08-25T08:57:46.337Z,14.80
2018-08-25T09:00:14.044Z,14.80
2018-08-25T09:02:41.937Z,14.80
2018-08-25T09:05:09.629Z,14.90
2018-08-25T09:07:37.281Z,15.00
2018-08-25T09:10:05.015Z,14.90
2018-08-25T09:12:32.689Z,14.90
2018-08-25T09:15:03.911Z,14.90
2018-08-25T09:17:31.604Z,14.80
2018-08-25T09:19:59.349Z,14.80
2018-08-25T09:22:26.960Z,14.80
2018-08-25T09:24:54.808Z,14.70
2018-08-25T09:27:22.482Z,14.70
2018-08-25T09:29:50.138Z,14.70
2018-08-25T09:32:17.900Z,14.70
2018-08-25T09:34:45.514Z,14.70
2018-08-25T09:37:13.236Z,14.60
2018-08-25T09:39:40.922Z,14.60
2018-08-25T09:42:08.678Z,14.70
2018-08-25T09:44:36.346Z,14.80
2018-08-25T09:47:04.155Z,15.00
2018-08-25T09:49:31.852Z,15.30
2018-08-25T09:52:00.193Z,15.40
2018-08-25T09:54:27.941Z,15.50
2018-08-25T09:56:55.612Z,15.60
2018-08-25T09:59:23.344Z,15.60
2018-08-25T10:01:56.365Z,15.70
2018-08-25T10:04:24.142Z,15.60
2018-08-25T10:06:52.984Z,15.50
2018-08-25T10:09:20.771Z,15.20
2018-08-25T10:11:48.503Z,15.10
2018-08-25T10:14:20.169Z,15.10
2018-08-25T10:22:36.395Z,15.20
2018-08-25T10:25:39.053Z,15.30
2018-08-25T15:20:15.896Z,19.30
2018-08-25T15:22:44.436Z,19.50
2018-08-25T15:25:17.357Z,19.60
2018-08-25T15:27:45.287Z,19.40
2018-08-25T15:30:15.081Z,19.40
2018-08-25T15:32:42.714Z,19.50
2018-08-25T15:38:01.576Z,19.60
2018-08-25T15:40:29.266Z,19.50
2018-08-25T15:43:06.884Z,19.40
2018-08-25T15:45:39.498Z,19.30
2018-08-25T15:48:13.675Z,19.10
2018-08-25T15:50:41.804Z,19.10
2018-08-25T15:55:55.658Z,19.00
2018-08-25T15:58:29.821Z,19.00
2018-08-25T16:01:05.681Z,19.10
2018-08-25T16:03:39.055Z,18.90
2018-08-25T16:06:23.699Z,18.90
2018-08-25T16:08:51.519Z,18.80
2018-08-25T16:11:23.708Z,18.80
2018-08-25T16:13:51.387Z,18.70
2018-08-25T16:16:19.090Z,18.70
2018-08-25T16:18:46.829Z,18.60
2018-08-25T16:21:14.557Z,18.50
2018-08-25T16:23:42.320Z,18.50
2018-08-25T16:26:09.985Z,18.40
2018-08-25T16:28:37.679Z,18.40
2018-08-25T16:31:19.586Z,18.30
2018-08-25T16:33:52.106Z,18.40
2018-08-25T16:36:20.069Z,18.30
2018-08-25T16:38:47.969Z,18.20
2018-08-25T16:41:43.464Z,18.30
2018-08-25T16:47:08.303Z,18.30
2018-08-25T16:49:37.154Z,18.30
2018-08-25T16:52:19.899Z,18.30
2018-08-25T16:54:47.794Z,18.20
2018-08-25T16:57:26.415Z,18.30
2018-08-25T16:59:57.998Z,18.20
2018-08-25T17:02:25.941Z,18.10
2018-08-25T17:05:04.163Z,18.00
2018-08-25T17:07:42.779Z,17.90
2018-08-25T17:10:19.886Z,17.90
2018-08-25T17:15:42.094Z,17.70
2018-08-25T17:18:10.918Z,17.70
2018-08-25T22:01:53.640Z,12.40
2018-08-25T22:04:22.444Z,12.40
2018-08-25T22:07:08.179Z,12.40
2018-08-25T22:09:46.717Z,12.30
2018-08-25T22:12:18.775Z,12.30
2018-08-25T22:14:46.525Z,12.30
2018-08-25T22:17:14.314Z,12.20
2018-08-25T22:19:42.029Z,12.10
2018-08-25T22:22:09.671Z,12.10
2018-08-25T22:24:38.314Z,12.10
2018-08-25T22:27:06.039Z,12.10
2018-08-25T22:29:33.669Z,12.10
2018-08-25T22:32:01.446Z,12.00
2018-08-25T22:34:29.162Z,12.00
2018-08-25T22:36:57.791Z,12.00
2018-08-25T22:39:26.457Z,12.00
2018-08-25T22:41:58.130Z,11.90
2018-08-25T22:44:27.854Z,11.90
2018-08-25T22:46:56.482Z,11.80
2018-08-25T22:49:24.141Z,11.70
2018-08-25T22:51:51.778Z,11.70
2018-08-25T22:54:19.375Z,11.70
2018-08-25T22:56:47.134Z,11.80
2018-08-25T22:59:14.842Z,11.70
2018-08-25T23:01:42.506Z,11.80
2018-08-25T23:04:10.163Z,11.70
2018-08-25T23:06:37.850Z,11.70
2018-08-25T23:09:06.526Z,11.60
2018-08-25T23:11:34.156Z,11.60
2018-08-25T23:14:01.823Z,11.50
2018-08-25T23:16:29.380Z,11.50
2018-08-25T23:18:57.132Z,11.40
2018-08-25T23:21:25.362Z,11.40
2018-08-25T23:23:53.014Z,11.30
2018-08-25T23:26:20.862Z,11.30
2018-08-25T23:28:48.484Z,11.30
2018-08-25T23:31:16.074Z,11.20
2018-08-25T23:33:48.343Z,11.20
2018-08-25T23:36:15.969Z,11.20
2018-08-25T23:38:43.744Z,11.20
2018-08-25T23:41:11.421Z,11.20
2018-08-25T23:43:39.076Z,11.20
2018-08-25T23:46:09.689Z,11.10
2018-08-25T23:48:37.426Z,11.10
2018-08-25T23:51:05.121Z,11.00
2018-08-25T23:53:32.906Z,11.00
2018-08-25T23:56:00.541Z,10.90
2018-08-25T23:58:31.545Z,10.90
